sensor_id;sensor_type;location;lat;lon;timestamp;pressure;altitude;pressure_sealevel;temperature;humidity
61394;BME280;48555;50.952;-0.120;2023-11-19T00:02:08;100502.06;;;14.68;91.61
61394;BME280;48555;50.952;-0.120;2023-11-19T00:04:37;100497.09;;;14.65;91.70
61394;BME280;48555;50.952;-0.120;2023-11-19T00:07:04;100491.13;;;14.63;91.43
61394;BME280;48555;50.952;-0.120;2023-11-19T00:09:32;100485.44;;;14.58;91.39
61394;BME280;48555;50.952;-0.120;2023-11-19T00:11:57;100469.25;;;14.52;91.27
61394;BME280;48555;50.952;-0.120;2023-11-19T00:14:23;100478.94;;;14.52;91.43
61394;BME280;48555;50.952;-0.120;2023-11-19T00:16:49;100475.22;;;14.45;91.45
61394;BME280;48555;50.952;-0.120;2023-11-19T00:19:16;100477.69;;;14.46;91.56
61394;BME280;48555;50.952;-0.120;2023-11-19T00:21:41;100473.00;;;14.40;91.33
61394;BME280;48555;50.952;-0.120;2023-11-19T00:24:07;100485.72;;;14.35;91.72
61394;BME280;48555;50.952;-0.120;2023-11-19T00:26:33;100464.00;;;14.23;92.27
61394;BME280;48555;50.952;-0.120;2023-11-19T00:28:59;100479.38;;;14.28;92.25
61394;BME280;48555;50.952;-0.120;2023-11-19T00:31:24;100469.69;;;14.28;92.11
61394;BME280;48555;50.952;-0.120;2023-11-19T00:33:51;100442.72;;;14.07;92.26
61394;BME280;48555;50.952;-0.120;2023-11-19T00:36:16;100474.69;;;14.22;92.56
61394;BME280;48555;50.952;-0.120;2023-11-19T00:38:42;100461.81;;;14.19;92.50
61394;BME280;48555;50.952;-0.120;2023-11-19T00:41:07;100473.03;;;14.21;92.63
61394;BME280;48555;50.952;-0.120;2023-11-19T00:43:32;100465.16;;;14.21;92.79
61394;BME280;48555;50.952;-0.120;2023-11-19T00:45:58;100460.16;;;14.18;92.82
61394;BME280;48555;50.952;-0.120;2023-11-19T00:48:23;100459.47;;;14.16;92.53
61394;BME280;48555;50.952;-0.120;2023-11-19T00:50:49;100453.66;;;14.12;92.70
61394;BME280;48555;50.952;-0.120;2023-11-19T00:53:14;100443.28;;;14.11;92.63
61394;BME280;48555;50.952;-0.120;2023-11-19T00:55:39;100445.19;;;14.08;92.59
61394;BME280;48555;50.952;-0.120;2023-11-19T00:58:04;100434.28;;;14.03;92.35
61394;BME280;48555;50.952;-0.120;2023-11-19T01:00:30;100465.28;;;14.09;92.43
61394;BME280;48555;50.952;-0.120;2023-11-19T01:02:57;100460.16;;;14.08;92.49
61394;BME280;48555;50.952;-0.120;2023-11-19T01:05:22;100457.25;;;14.11;92.55
61394;BME280;48555;50.952;-0.120;2023-11-19T01:07:48;100458.34;;;14.08;92.12
61394;BME280;48555;50.952;-0.120;2023-11-19T01:10:14;100457.69;;;14.06;92.25
61394;BME280;48555;50.952;-0.120;2023-11-19T01:12:41;100455.88;;;14.07;92.16
61394;BME280;48555;50.952;-0.120;2023-11-19T01:15:07;100466.41;;;13.97;92.66
61394;BME280;48555;50.952;-0.120;2023-11-19T01:17:33;100461.28;;;13.96;92.48
61394;BME280;48555;50.952;-0.120;2023-11-19T01:19:58;100476.63;;;14.00;92.33
61394;BME280;48555;50.952;-0.120;2023-11-19T01:22:24;100467.06;;;13.99;92.48
61394;BME280;48555;50.952;-0.120;2023-11-19T01:24:49;100459.88;;;14.01;92.29
61394;BME280;48555;50.952;-0.120;2023-11-19T01:27:14;100460.72;;;14.02;92.10
61394;BME280;48555;50.952;-0.120;2023-11-19T01:29:40;100461.53;;;14.02;91.95
61394;BME280;48555;50.952;-0.120;2023-11-19T01:32:06;100460.16;;;13.98;91.94
61394;BME280;48555;50.952;-0.120;2023-11-19T01:34:31;100457.53;;;13.89;92.11
61394;BME280;48555;50.952;-0.120;2023-11-19T01:36:56;100462.81;;;13.89;91.81
61394;BME280;48555;50.952;-0.120;2023-11-19T01:39:22;100455.31;;;13.94;91.98
61394;BME280;48555;50.952;-0.120;2023-11-19T01:41:47;100450.34;;;13.91;91.76
61394;BME280;48555;50.952;-0.120;2023-11-19T01:44:13;100443.28;;;13.91;91.30
61394;BME280;48555;50.952;-0.120;2023-11-19T01:46:40;100448.81;;;13.88;91.36
61394;BME280;48555;50.952;-0.120;2023-11-19T01:49:07;100448.69;;;13.80;91.61
61394;BME280;48555;50.952;-0.120;2023-11-19T01:51:33;100445.91;;;13.81;91.50
61394;BME280;48555;50.952;-0.120;2023-11-19T01:54:00;100442.03;;;13.76;91.54
61394;BME280;48555;50.952;-0.120;2023-11-19T01:56:27;100449.63;;;13.79;91.41
61394;BME280;48555;50.952;-0.120;2023-11-19T01:58:53;100455.72;;;13.79;91.14
61394;BME280;48555;50.952;-0.120;2023-11-19T02:01:20;100447.72;;;13.81;91.24
61394;BME280;48555;50.952;-0.120;2023-11-19T02:03:45;100457.41;;;13.80;91.02
61394;BME280;48555;50.952;-0.120;2023-11-19T02:06:12;100448.53;;;13.81;91.10
61394;BME280;48555;50.952;-0.120;2023-11-19T02:08:38;100441.34;;;13.83;90.77
61394;BME280;48555;50.952;-0.120;2023-11-19T02:11:04;100436.66;;;13.77;90.81
61394;BME280;48555;50.952;-0.120;2023-11-19T02:13:32;100434.56;;;13.81;91.02
61394;BME280;48555;50.952;-0.120;2023-11-19T02:15:58;100434.03;;;13.77;91.00
61394;BME280;48555;50.952;-0.120;2023-11-19T02:18:25;100446.72;;;13.82;90.81
61394;BME280;48555;50.952;-0.120;2023-11-19T02:20:53;100441.47;;;13.82;90.77
61394;BME280;48555;50.952;-0.120;2023-11-19T02:23:20;100437.91;;;13.83;90.67
61394;BME280;48555;50.952;-0.120;2023-11-19T02:28:25;100443.00;;;13.84;91.17
61394;BME280;48555;50.952;-0.120;2023-11-19T02:30:51;100436.91;;;13.84;91.76
61394;BME280;48555;50.952;-0.120;2023-11-19T02:33:16;100433.19;;;13.86;92.08
61394;BME280;48555;50.952;-0.120;2023-11-19T02:35:42;100432.63;;;13.93;92.14
61394;BME280;48555;50.952;-0.120;2023-11-19T02:38:07;100433.63;;;13.92;92.59
61394;BME280;48555;50.952;-0.120;2023-11-19T02:40:33;100424.47;;;13.96;92.97
61394;BME280;48555;50.952;-0.120;2023-11-19T02:42:58;100421.16;;;14.03;92.73
61394;BME280;48555;50.952;-0.120;2023-11-19T02:45:24;100427.78;;;14.07;92.63
61394;BME280;48555;50.952;-0.120;2023-11-19T02:47:51;100425.69;;;14.11;92.60
61394;BME280;48555;50.952;-0.120;2023-11-19T02:50:18;100434.28;;;14.13;92.54
61394;BME280;48555;50.952;-0.120;2023-11-19T02:52:51;100424.19;;;14.18;92.04
61394;BME280;48555;50.952;-0.120;2023-11-19T02:55:16;100417.53;;;14.04;91.79
61394;BME280;48555;50.952;-0.120;2023-11-19T02:57:43;100428.44;;;14.19;91.19
61394;BME280;48555;50.952;-0.120;2023-11-19T03:00:17;100430.78;;;14.22;91.20
61394;BME280;48555;50.952;-0.120;2023-11-19T03:02:44;100433.00;;;14.17;90.32
61394;BME280;48555;50.952;-0.120;2023-11-19T03:05:12;100428.31;;;14.21;90.30
61394;BME280;48555;50.952;-0.120;2023-11-19T03:07:43;100433.31;;;14.24;89.71
61394;BME280;48555;50.952;-0.120;2023-11-19T03:10:09;100422.22;;;14.20;89.41
61394;BME280;48555;50.952;-0.120;2023-11-19T03:12:38;100435.94;;;14.24;89.20
61394;BME280;48555;50.952;-0.120;2023-11-19T03:15:03;100431.63;;;14.23;88.97
61394;BME280;48555;50.952;-0.120;2023-11-19T03:17:28;100429.97;;;14.22;88.95
61394;BME280;48555;50.952;-0.120;2023-11-19T03:19:54;100422.94;;;14.13;88.76
61394;BME280;48555;50.952;-0.120;2023-11-19T03:22:19;100425.13;;;14.17;88.99
61394;BME280;48555;50.952;-0.120;2023-11-19T03:24:46;100399.41;;;14.21;88.69
61394;BME280;48555;50.952;-0.120;2023-11-19T03:27:11;100379.59;;;14.17;88.28
61394;BME280;48555;50.952;-0.120;2023-11-19T03:29:36;100397.72;;;14.20;88.09
61394;BME280;48555;50.952;-0.120;2023-11-19T03:32:04;100416.41;;;14.17;87.90
61394;BME280;48555;50.952;-0.120;2023-11-19T03:34:29;100410.47;;;14.15;88.04
61394;BME280;48555;50.952;-0.120;2023-11-19T03:36:54;100415.16;;;14.11;88.05
61394;BME280;48555;50.952;-0.120;2023-11-19T03:39:20;100407.72;;;14.06;88.07
61394;BME280;48555;50.952;-0.120;2023-11-19T03:41:49;100406.91;;;14.06;88.08
61394;BME280;48555;50.952;-0.120;2023-11-19T03:44:15;100421.53;;;14.08;88.05
61394;BME280;48555;50.952;-0.120;2023-11-19T03:46:40;100424.59;;;14.04;88.08
61394;BME280;48555;50.952;-0.120;2023-11-19T03:49:06;100422.53;;;14.07;88.03
61394;BME280;48555;50.952;-0.120;2023-11-19T03:51:32;100427.78;;;14.07;87.99
61394;BME280;48555;50.952;-0.120;2023-11-19T03:53:57;100416.84;;;14.02;88.21
61394;BME280;48555;50.952;-0.120;2023-11-19T03:56:24;100401.22;;;14.01;88.31
61394;BME280;48555;50.952;-0.120;2023-11-19T03:58:49;100418.25;;;14.06;88.46
61394;BME280;48555;50.952;-0.120;2023-11-19T04:01:14;100407.72;;;14.06;88.37
61394;BME280;48555;50.952;-0.120;2023-11-19T04:03:40;100405.22;;;14.05;88.36
61394;BME280;48555;50.952;-0.120;2023-11-19T04:06:06;100390.16;;;13.88;88.72
61394;BME280;48555;50.952;-0.120;2023-11-19T04:08:31;100404.25;;;13.96;88.62
61394;BME280;48555;50.952;-0.120;2023-11-19T04:10:56;100414.50;;;14.09;88.10
61394;BME280;48555;50.952;-0.120;2023-11-19T04:13:22;100413.66;;;14.08;87.79
61394;BME280;48555;50.952;-0.120;2023-11-19T04:15:49;100415.31;;;14.09;87.95
61394;BME280;48555;50.952;-0.120;2023-11-19T04:18:15;100405.91;;;14.07;87.98
61394;BME280;48555;50.952;-0.120;2023-11-19T04:20:40;100413.81;;;14.07;87.78
61394;BME280;48555;50.952;-0.120;2023-11-19T04:23:07;100417.13;;;14.09;87.90
61394;BME280;48555;50.952;-0.120;2023-11-19T04:25:33;100412.69;;;14.09;87.77
61394;BME280;48555;50.952;-0.120;2023-11-19T04:27:58;100410.34;;;14.06;88.17
61394;BME280;48555;50.952;-0.120;2023-11-19T04:30:23;100416.69;;;14.14;87.79
61394;BME280;48555;50.952;-0.120;2023-11-19T04:32:49;100413.09;;;14.15;87.65
61394;BME280;48555;50.952;-0.120;2023-11-19T04:35:14;100399.97;;;14.05;87.83
61394;BME280;48555;50.952;-0.120;2023-11-19T04:37:41;100410.63;;;14.13;87.81
61394;BME280;48555;50.952;-0.120;2023-11-19T04:40:07;100406.19;;;14.14;87.69
61394;BME280;48555;50.952;-0.120;2023-11-19T04:42:32;100395.53;;;14.15;87.82
61394;BME280;48555;50.952;-0.120;2023-11-19T04:44:57;100394.56;;;14.16;87.58
61394;BME280;48555;50.952;-0.120;2023-11-19T04:47:23;100402.31;;;14.18;87.97
61394;BME280;48555;50.952;-0.120;2023-11-19T04:49:48;100404.09;;;14.17;88.08
61394;BME280;48555;50.952;-0.120;2023-11-19T04:52:13;100412.53;;;14.21;88.17
61394;BME280;48555;50.952;-0.120;2023-11-19T04:54:43;100403.69;;;14.22;87.89
61394;BME280;48555;50.952;-0.120;2023-11-19T04:57:09;100392.47;;;14.20;88.14
61394;BME280;48555;50.952;-0.120;2023-11-19T04:59:37;100384.44;;;14.21;87.84
61394;BME280;48555;50.952;-0.120;2023-11-19T05:02:03;100384.28;;;14.32;87.71
61394;BME280;48555;50.952;-0.120;2023-11-19T05:04:29;100382.59;;;14.31;87.38
61394;BME280;48555;50.952;-0.120;2023-11-19T05:06:54;100386.75;;;14.34;87.10
61394;BME280;48555;50.952;-0.120;2023-11-19T05:09:20;100398.38;;;14.31;87.32
61394;BME280;48555;50.952;-0.120;2023-11-19T05:11:45;100390.38;;;14.33;86.96
61394;BME280;48555;50.952;-0.120;2023-11-19T05:14:11;100379.03;;;14.32;86.73
61394;BME280;48555;50.952;-0.120;2023-11-19T05:16:39;100392.72;;;14.36;86.19
61394;BME280;48555;50.952;-0.120;2023-11-19T05:19:04;100383.00;;;14.37;86.05
61394;BME280;48555;50.952;-0.120;2023-11-19T05:21:30;100378.44;;;14.39;85.64
61394;BME280;48555;50.952;-0.120;2023-11-19T05:23:55;100388.69;;;14.32;85.46
61394;BME280;48555;50.952;-0.120;2023-11-19T05:26:23;100378.31;;;14.30;85.32
61394;BME280;48555;50.952;-0.120;2023-11-19T05:28:49;100372.66;;;14.25;85.48
61394;BME280;48555;50.952;-0.120;2023-11-19T05:31:16;100382.34;;;14.25;85.39
61394;BME280;48555;50.952;-0.120;2023-11-19T05:33:41;100388.69;;;14.32;85.12
61394;BME280;48555;50.952;-0.120;2023-11-19T05:36:07;100389.94;;;14.28;85.30
61394;BME280;48555;50.952;-0.120;2023-11-19T05:38:33;100389.66;;;14.31;85.09
61394;BME280;48555;50.952;-0.120;2023-11-19T05:40:59;100395.34;;;14.36;85.04
61394;BME280;48555;50.952;-0.120;2023-11-19T05:43:24;100392.72;;;14.36;84.87
61394;BME280;48555;50.952;-0.120;2023-11-19T05:45:49;100388.84;;;14.30;84.93
61394;BME280;48555;50.952;-0.120;2023-11-19T05:48:15;100372.41;;;14.19;84.84
61394;BME280;48555;50.952;-0.120;2023-11-19T05:50:41;100389.25;;;14.36;84.97
61394;BME280;48555;50.952;-0.120;2023-11-19T05:53:07;100383.84;;;14.37;84.93
61394;BME280;48555;50.952;-0.120;2023-11-19T05:55:35;100380.22;;;14.38;84.88
61394;BME280;48555;50.952;-0.120;2023-11-19T05:58:03;100377.88;;;14.35;84.82
61394;BME280;48555;50.952;-0.120;2023-11-19T06:00:29;100389.91;;;14.38;84.82
61394;BME280;48555;50.952;-0.120;2023-11-19T06:02:55;100387.56;;;14.35;84.95
61394;BME280;48555;50.952;-0.120;2023-11-19T06:05:21;100379.69;;;14.35;84.72
61394;BME280;48555;50.952;-0.120;2023-11-19T06:07:46;100379.81;;;14.43;84.37
61394;BME280;48555;50.952;-0.120;2023-11-19T06:10:11;100385.34;;;14.40;84.49
61394;BME280;48555;50.952;-0.120;2023-11-19T06:12:39;100390.50;;;14.41;84.31
61394;BME280;48555;50.952;-0.120;2023-11-19T06:15:07;100397.22;;;14.44;84.31
61394;BME280;48555;50.952;-0.120;2023-11-19T06:17:33;100381.66;;;14.32;84.39
61394;BME280;48555;50.952;-0.120;2023-11-19T06:19:59;100385.47;;;14.38;84.46
61394;BME280;48555;50.952;-0.120;2023-11-19T06:22:24;100384.25;;;14.42;84.38
61394;BME280;48555;50.952;-0.120;2023-11-19T06:24:50;100382.84;;;14.48;84.86
61394;BME280;48555;50.952;-0.120;2023-11-19T06:27:15;100382.03;;;14.47;84.96
61394;BME280;48555;50.952;-0.120;2023-11-19T06:29:41;100368.59;;;14.41;85.03
61394;BME280;48555;50.952;-0.120;2023-11-19T06:32:06;100386.56;;;14.55;85.17
61394;BME280;48555;50.952;-0.120;2023-11-19T06:34:33;100379.91;;;14.51;85.60
61394;BME280;48555;50.952;-0.120;2023-11-19T06:36:59;100383.66;;;14.48;86.03
61394;BME280;48555;50.952;-0.120;2023-11-19T06:39:24;100375.63;;;14.50;86.75
61394;BME280;48555;50.952;-0.120;2023-11-19T06:41:50;100370.81;;;14.45;87.63
61394;BME280;48555;50.952;-0.120;2023-11-19T06:44:15;100379.38;;;14.47;87.84
61394;BME280;48555;50.952;-0.120;2023-11-19T06:46:40;100395.00;;;14.49;88.12
61394;BME280;48555;50.952;-0.120;2023-11-19T06:49:06;100398.63;;;14.48;88.37
61394;BME280;48555;50.952;-0.120;2023-11-19T06:51:33;100397.28;;;14.34;90.17
61394;BME280;48555;50.952;-0.120;2023-11-19T06:53:59;100393.84;;;14.24;91.51
61394;BME280;48555;50.952;-0.120;2023-11-19T06:56:24;100392.47;;;14.20;91.45
61394;BME280;48555;50.952;-0.120;2023-11-19T06:58:50;100404.38;;;14.14;91.38
61394;BME280;48555;50.952;-0.120;2023-11-19T07:01:17;100397.22;;;14.06;91.23
61394;BME280;48555;50.952;-0.120;2023-11-19T07:03:44;100398.88;;;13.98;91.00
61394;BME280;48555;50.952;-0.120;2023-11-19T07:06:10;100390.84;;;13.90;90.95
61394;BME280;48555;50.952;-0.120;2023-11-19T07:08:35;100403.72;;;13.93;90.23
61394;BME280;48555;50.952;-0.120;2023-11-19T07:11:02;100398.75;;;13.80;90.43
61394;BME280;48555;50.952;-0.120;2023-11-19T07:13:28;100409.81;;;13.74;90.81
61394;BME280;48555;50.952;-0.120;2023-11-19T07:15:55;100404.56;;;13.74;90.66
61394;BME280;48555;50.952;-0.120;2023-11-19T07:18:21;100412.44;;;13.74;90.72
61394;BME280;48555;50.952;-0.120;2023-11-19T07:20:49;100414.66;;;13.69;91.33
61394;BME280;48555;50.952;-0.120;2023-11-19T07:23:14;100412.44;;;13.64;91.57
61394;BME280;48555;50.952;-0.120;2023-11-19T07:25:42;100415.34;;;13.71;91.21
61394;BME280;48555;50.952;-0.120;2023-11-19T07:28:08;100409.94;;;13.72;91.03
61394;BME280;48555;50.952;-0.120;2023-11-19T07:30:35;100413.13;;;13.76;91.20
61394;BME280;48555;50.952;-0.120;2023-11-19T07:33:00;100413.13;;;13.76;91.19
61394;BME280;48555;50.952;-0.120;2023-11-19T07:35:25;100415.63;;;13.77;91.20
61394;BME280;48555;50.952;-0.120;2023-11-19T07:37:51;100409.81;;;13.83;90.96
61394;BME280;48555;50.952;-0.120;2023-11-19T07:40:16;100395.84;;;13.83;91.03
61394;BME280;48555;50.952;-0.120;2023-11-19T07:42:41;100412.16;;;13.86;90.37
61394;BME280;48555;50.952;-0.120;2023-11-19T07:45:07;100401.50;;;13.88;90.49
61394;BME280;48555;50.952;-0.120;2023-11-19T07:47:32;100391.25;;;13.85;89.90
61394;BME280;48555;50.952;-0.120;2023-11-19T07:49:58;100392.50;;;13.91;90.22
61394;BME280;48555;50.952;-0.120;2023-11-19T07:52:23;100383.78;;;13.90;90.31
61394;BME280;48555;50.952;-0.120;2023-11-19T07:54:48;100384.47;;;14.02;89.64
61394;BME280;48555;50.952;-0.120;2023-11-19T07:57:14;100379.75;;;14.05;89.17
61394;BME280;48555;50.952;-0.120;2023-11-19T07:59:39;100392.91;;;14.05;88.83
61394;BME280;48555;50.952;-0.120;2023-11-19T08:02:05;100390.00;;;13.99;88.75
61394;BME280;48555;50.952;-0.120;2023-11-19T08:04:30;100403.41;;;14.05;88.41
61394;BME280;48555;50.952;-0.120;2023-11-19T08:06:56;100403.84;;;14.11;88.16
61394;BME280;48555;50.952;-0.120;2023-11-19T08:09:21;100410.63;;;14.13;87.79
61394;BME280;48555;50.952;-0.120;2023-11-19T08:11:48;100405.34;;;14.13;87.59
61394;BME280;48555;50.952;-0.120;2023-11-19T08:14:13;100387.91;;;14.22;87.18
61394;BME280;48555;50.952;-0.120;2023-11-19T08:16:39;100395.47;;;14.35;86.77
61394;BME280;48555;50.952;-0.120;2023-11-19T08:19:05;100394.19;;;14.48;85.68
61394;BME280;48555;50.952;-0.120;2023-11-19T08:21:30;100386.00;;;14.61;84.94
61394;BME280;48555;50.952;-0.120;2023-11-19T08:23:56;100395.13;;;14.67;84.18
61394;BME280;48555;50.952;-0.120;2023-11-19T08:26:21;100399.97;;;14.71;83.77
61394;BME280;48555;50.952;-0.120;2023-11-19T08:28:46;100401.19;;;14.67;83.21
61394;BME280;48555;50.952;-0.120;2023-11-19T08:31:12;100393.59;;;14.64;82.90
61394;BME280;48555;50.952;-0.120;2023-11-19T08:33:38;100403.00;;;14.67;82.90
61394;BME280;48555;50.952;-0.120;2023-11-19T08:36:04;100393.28;;;14.77;82.76
61394;BME280;48555;50.952;-0.120;2023-11-19T08:38:29;100411.22;;;14.91;82.35
61394;BME280;48555;50.952;-0.120;2023-11-19T08:40:55;100397.25;;;15.09;82.22
61394;BME280;48555;50.952;-0.120;2023-11-19T08:43:26;100394.69;;;15.27;81.73
61394;BME280;48555;50.952;-0.120;2023-11-19T08:45:51;100396.78;;;15.41;81.45
61394;BME280;48555;50.952;-0.120;2023-11-19T08:48:16;100400.31;;;15.50;81.09
61394;BME280;48555;50.952;-0.120;2023-11-19T08:50:42;100407.63;;;15.56;81.12
61394;BME280;48555;50.952;-0.120;2023-11-19T08:53:07;100379.31;;;15.58;80.84
61394;BME280;48555;50.952;-0.120;2023-11-19T08:55:32;100400.69;;;15.55;80.93
61394;BME280;48555;50.952;-0.120;2023-11-19T08:57:58;100410.25;;;15.56;80.30
61394;BME280;48555;50.952;-0.120;2023-11-19T09:00:23;100404.84;;;15.57;80.42
61394;BME280;48555;50.952;-0.120;2023-11-19T09:02:48;100396.03;;;15.66;80.50
61394;BME280;48555;50.952;-0.120;2023-11-19T09:05:14;100408.25;;;15.67;80.13
61394;BME280;48555;50.952;-0.120;2023-11-19T09:07:39;100396.13;;;15.75;79.96
61394;BME280;48555;50.952;-0.120;2023-11-19T09:10:05;100395.97;;;15.76;79.93
61394;BME280;48555;50.952;-0.120;2023-11-19T09:12:30;100392.69;;;15.74;79.22
61394;BME280;48555;50.952;-0.120;2023-11-19T09:14:56;100394.81;;;15.71;78.92
61394;BME280;48555;50.952;-0.120;2023-11-19T09:17:21;100408.19;;;15.77;78.80
61394;BME280;48555;50.952;-0.120;2023-11-19T09:19:46;100391.47;;;15.69;78.80
61394;BME280;48555;50.952;-0.120;2023-11-19T09:22:12;100383.41;;;15.70;78.50
61394;BME280;48555;50.952;-0.120;2023-11-19T09:24:37;100388.03;;;15.68;78.43
61394;BME280;48555;50.952;-0.120;2023-11-19T09:27:03;100383.84;;;15.65;78.05
61394;BME280;48555;50.952;-0.120;2023-11-19T09:29:31;100385.97;;;15.62;77.93
61394;BME280;48555;50.952;-0.120;2023-11-19T09:31:56;100397.53;;;15.51;77.20
61394;BME280;48555;50.952;-0.120;2023-11-19T09:34:22;100393.91;;;15.52;77.36
61394;BME280;48555;50.952;-0.120;2023-11-19T09:36:47;100397.25;;;15.54;77.49
61394;BME280;48555;50.952;-0.120;2023-11-19T09:39:13;100400.31;;;15.50;76.50
61394;BME280;48555;50.952;-0.120;2023-11-19T09:41:43;100395.34;;;15.47;76.80
61394;BME280;48555;50.952;-0.120;2023-11-19T09:44:10;100381.22;;;15.48;76.45
61394;BME280;48555;50.952;-0.120;2023-11-19T09:46:37;100395.91;;;15.50;76.80
61394;BME280;48555;50.952;-0.120;2023-11-19T09:49:04;100392.56;;;15.48;76.09
61394;BME280;48555;50.952;-0.120;2023-11-19T09:51:30;100377.50;;;15.40;76.12
61394;BME280;48555;50.952;-0.120;2023-11-19T09:53:55;100379.53;;;15.47;75.97
61394;BME280;48555;50.952;-0.120;2023-11-19T09:56:21;100385.78;;;15.45;75.77
61394;BME280;48555;50.952;-0.120;2023-11-19T09:58:48;100392.06;;;15.44;75.57
61394;BME280;48555;50.952;-0.120;2023-11-19T10:01:13;100398.50;;;15.32;74.68
61394;BME280;48555;50.952;-0.120;2023-11-19T10:03:39;100395.94;;;15.22;74.86
61394;BME280;48555;50.952;-0.120;2023-11-19T10:06:09;100401.06;;;15.24;74.52
61394;BME280;48555;50.952;-0.120;2023-11-19T10:08:38;100399.09;;;15.26;74.91
61394;BME280;48555;50.952;-0.120;2023-11-19T10:11:07;100400.91;;;15.26;75.44
61394;BME280;48555;50.952;-0.120;2023-11-19T10:13:35;100407.25;;;15.33;75.29
61394;BME280;48555;50.952;-0.120;2023-11-19T10:16:12;100397.16;;;15.46;74.96
61394;BME280;48555;50.952;-0.120;2023-11-19T10:18:43;100407.91;;;15.53;75.58
61394;BME280;48555;50.952;-0.120;2023-11-19T10:21:12;100402.50;;;15.54;74.96
61394;BME280;48555;50.952;-0.120;2023-11-19T10:24:02;100400.56;;;15.56;75.25
61394;BME280;48555;50.952;-0.120;2023-11-19T10:26:27;100395.22;;;15.66;74.63
61394;BME280;48555;50.952;-0.120;2023-11-19T10:28:52;100403.13;;;15.66;74.52
61394;BME280;48555;50.952;-0.120;2023-11-19T10:31:20;100393.13;;;15.70;74.50
61394;BME280;48555;50.952;-0.120;2023-11-19T10:33:49;100388.66;;;15.70;74.60
61394;BME280;48555;50.952;-0.120;2023-11-19T10:36:15;100394.38;;;15.65;74.38
61394;BME280;48555;50.952;-0.120;2023-11-19T10:38:41;100395.97;;;15.76;74.61
61394;BME280;48555;50.952;-0.120;2023-11-19T10:41:29;100402.13;;;15.85;74.78
61394;BME280;48555;50.952;-0.120;2023-11-19T10:43:55;100399.56;;;15.93;74.60
61394;BME280;48555;50.952;-0.120;2023-11-19T10:46:21;100399.97;;;15.98;74.23
61394;BME280;48555;50.952;-0.120;2023-11-19T10:48:48;100392.09;;;16.06;73.89
61394;BME280;48555;50.952;-0.120;2023-11-19T10:51:18;100391.31;;;16.14;73.34
61394;BME280;48555;50.952;-0.120;2023-11-19T10:53:47;100400.44;;;16.20;72.88
61394;BME280;48555;50.952;-0.120;2023-11-19T10:56:16;100401.25;;;16.20;72.13
61394;BME280;48555;50.952;-0.120;2023-11-19T10:58:44;100385.59;;;16.19;71.25
61394;BME280;48555;50.952;-0.120;2023-11-19T11:01:18;100396.25;;;16.09;70.20
61394;BME280;48555;50.952;-0.120;2023-11-19T11:03:45;100402.88;;;16.13;69.97
61394;BME280;48555;50.952;-0.120;2023-11-19T11:06:13;100400.03;;;16.06;70.15
61394;BME280;48555;50.952;-0.120;2023-11-19T11:08:39;100396.91;;;16.11;70.94
61394;BME280;48555;50.952;-0.120;2023-11-19T11:11:05;100391.75;;;16.01;71.47
61394;BME280;48555;50.952;-0.120;2023-11-19T11:13:31;100391.56;;;16.03;71.35
61394;BME280;48555;50.952;-0.120;2023-11-19T11:15:57;100398.03;;;16.08;71.30
61394;BME280;48555;50.952;-0.120;2023-11-19T11:18:23;100403.41;;;15.99;71.37
61394;BME280;48555;50.952;-0.120;2023-11-19T11:20:52;100399.06;;;15.89;71.45
61394;BME280;48555;50.952;-0.120;2023-11-19T11:23:42;100409.22;;;15.84;71.61
61394;BME280;48555;50.952;-0.120;2023-11-19T11:26:39;100408.53;;;15.82;72.11
61394;BME280;48555;50.952;-0.120;2023-11-19T11:36:57;100392.72;;;15.64;73.09
61394;BME280;48555;50.952;-0.120;2023-11-19T11:39:28;100395.81;;;15.60;73.54
61394;BME280;48555;50.952;-0.120;2023-11-19T11:45:04;100370.59;;;15.57;73.47
61394;BME280;48555;50.952;-0.120;2023-11-19T11:50:11;100372.63;;;15.63;74.05
61394;BME280;48555;50.952;-0.120;2023-11-19T11:55:27;100344.44;;;15.64;73.83
61394;BME280;48555;50.952;-0.120;2023-11-19T11:57:53;100373.44;;;15.64;73.91
61394;BME280;48555;50.952;-0.120;2023-11-19T12:00:26;100353.66;;;15.60;73.63
61394;BME280;48555;50.952;-0.120;2023-11-19T12:02:54;100347.69;;;15.58;74.09
61394;BME280;48555;50.952;-0.120;2023-11-19T12:05:21;100349.00;;;15.54;74.41
61394;BME280;48555;50.952;-0.120;2023-11-19T12:08:18;100350.41;;;15.48;75.10
61394;BME280;48555;50.952;-0.120;2023-11-19T12:10:49;100346.78;;;15.49;75.56
61394;BME280;48555;50.952;-0.120;2023-11-19T12:13:16;100350.41;;;15.48;75.91
61394;BME280;48555;50.952;-0.120;2023-11-19T12:18:31;100318.28;;;15.27;76.07
61394;BME280;48555;50.952;-0.120;2023-11-19T12:20:57;100355.00;;;15.46;76.00
61394;BME280;48555;50.952;-0.120;2023-11-19T12:23:28;100349.13;;;15.34;76.43
61394;BME280;48555;50.952;-0.120;2023-11-19T12:25:54;100335.34;;;15.40;76.28
61394;BME280;48555;50.952;-0.120;2023-11-19T12:28:20;100331.69;;;15.33;77.02
61394;BME280;48555;50.952;-0.120;2023-11-19T12:30:45;100354.78;;;15.39;76.48
61394;BME280;48555;50.952;-0.120;2023-11-19T12:33:13;100344.84;;;15.33;76.68
61394;BME280;48555;50.952;-0.120;2023-11-19T12:35:40;100343.47;;;15.29;76.99
61394;BME280;48555;50.952;-0.120;2023-11-19T12:38:05;100354.56;;;15.33;77.62
61394;BME280;48555;50.952;-0.120;2023-11-19T12:40:31;100347.31;;;15.35;77.46
61394;BME280;48555;50.952;-0.120;2023-11-19T12:42:57;100355.81;;;15.29;78.81
61394;BME280;48555;50.952;-0.120;2023-11-19T12:45:23;100350.72;;;15.27;79.39
61394;BME280;48555;50.952;-0.120;2023-11-19T12:48:04;100350.63;;;15.19;80.36
61394;BME280;48555;50.952;-0.120;2023-11-19T12:50:50;100356.13;;;15.26;80.93
61394;BME280;48555;50.952;-0.120;2023-11-19T12:53:16;100363.72;;;15.29;81.17
61394;BME280;48555;50.952;-0.120;2023-11-19T12:55:41;100353.56;;;15.34;80.95
61394;BME280;48555;50.952;-0.120;2023-11-19T12:58:06;100336.88;;;15.25;81.84
61394;BME280;48555;50.952;-0.120;2023-11-19T13:00:32;100351.03;;;15.24;82.64